Time;durP1;ratioP1;P1;durP2;ratioP2;P2;SDS_P1;SDS_P2;PMS_P1;PMS_P2;Temp;Humidity;BMP_temperature;BMP_pressure;BME280_temperature;BME280_humidity;BME280_pressure;Samples;Min_cycle;Max_cycle;Signal;HPM_P1;HPM_P2
2022/07/13 00:00:52;;;;;;;2.30;2.10;;;;;;;;;;4864049;29;20240;-84
2022/07/13 00:03:17;;;;;;;2.30;2.10;;;;;;;;;;4859441;29;20221;-84
2022/07/13 00:05:45;;;;;;;3.17;2.17;;;;;;;;;;4861003;29;20233;-84
2022/07/13 00:08:11;;;;;;;2.85;2.50;;;;;;;;;;4875827;29;20643;-84
2022/07/13 00:10:39;;;;;;;2.97;2.20;;;;;;;;;;4876855;29;20247;-84
2022/07/13 00:13:06;;;;;;;3.58;2.17;;;;;;;;;;4879322;29;20232;-83
2022/07/13 00:15:32;;;;;;;2.25;2.03;;;;;;;;;;4897305;29;20231;-84
2022/07/13 00:26:12;;;;;;;2.13;2.03;;;;;;;;;;4925073;23;20229;-76
2022/07/13 00:28:37;;;;;;;2.53;2.30;;;;;;;;;;4927755;29;20243;-75
2022/07/13 00:31:05;;;;;;;2.70;2.33;;;;;;;;;;4913933;29;20241;-75
2022/07/13 00:33:35;;;;;;;2.20;2.08;;;;;;;;;;4913438;29;20303;-75
2022/07/13 00:36:03;;;;;;;2.42;2.03;;;;;;;;;;4894686;29;20231;-75
2022/07/13 00:38:28;;;;;;;3.42;2.17;;;;;;;;;;4902801;29;20228;-75
2022/07/13 00:40:54;;;;;;;3.35;2.20;;;;;;;;;;4927151;29;20228;-76
2022/07/13 00:43:19;;;;;;;2.50;2.15;;;;;;;;;;4895013;29;20242;-75
2022/07/13 00:45:45;;;;;;;2.45;2.00;;;;;;;;;;4929720;29;20227;-75
2022/07/13 00:48:14;;;;;;;3.60;2.20;;;;;;;;;;4889308;29;20924;-75
2022/07/13 00:50:40;;;;;;;2.42;2.20;;;;;;;;;;4898856;29;20230;-75
2022/07/13 00:53:08;;;;;;;2.60;2.30;;;;;;;;;;4898425;29;20234;-75
2022/07/13 00:55:36;;;;;;;2.88;2.30;;;;;;;;;;4912873;29;20759;-75
2022/07/13 00:58:02;;;;;;;2.50;2.30;;;;;;;;;;4886134;29;20286;-76
2022/07/13 01:00:46;;;;;;;2.15;2.00;;;;;;;;;;4917748;29;20734;-75
2022/07/13 01:03:11;;;;;;;2.35;2.17;;;;;;;;;;4893538;29;20228;-76
2022/07/13 01:05:39;;;;;;;2.40;2.10;;;;;;;;;;4899063;29;20250;-75
2022/07/13 01:08:08;;;;;;;2.30;2.10;;;;;;;;;;4910815;29;20597;-75
2022/07/13 01:10:36;;;;;;;2.50;2.13;;;;;;;;;;4898176;29;20232;-74
2022/07/13 01:13:04;;;;;;;4.15;2.42;;;;;;;;;;4882078;29;20242;-75
2022/07/13 01:15:32;;;;;;;2.60;2.15;;;;;;;;;;4895204;29;20224;-76
2022/07/13 01:17:58;;;;;;;2.50;2.30;;;;;;;;;;4896707;29;20316;-75
2022/07/13 01:20:26;;;;;;;2.35;2.15;;;;;;;;;;4883177;29;20219;-75
2022/07/13 01:23:13;;;;;;;2.90;2.30;;;;;;;;;;4879593;29;20710;-76
2022/07/13 01:25:39;;;;;;;2.40;2.20;;;;;;;;;;4928517;29;20301;-75
2022/07/13 01:28:04;;;;;;;2.42;1.88;;;;;;;;;;4898716;29;20235;-75
2022/07/13 01:30:32;;;;;;;2.30;2.10;;;;;;;;;;4910306;29;20286;-74
2022/07/13 01:33:00;;;;;;;1.95;1.85;;;;;;;;;;4926964;29;20223;-75
2022/07/13 01:35:25;;;;;;;2.50;2.05;;;;;;;;;;4896322;29;20282;-75
2022/07/13 01:37:51;;;;;;;2.40;2.20;;;;;;;;;;4896568;29;20224;-75
2022/07/13 01:40:16;;;;;;;2.25;2.13;;;;;;;;;;4903034;23;20248;-84
2022/07/13 01:46:34;;;;;;;2.33;2.13;;;;;;;;;;4909851;29;20634;-82
2022/07/13 01:49:02;;;;;;;2.67;2.20;;;;;;;;;;4884040;29;20239;-82
2022/07/13 01:51:46;;;;;;;2.20;2.10;;;;;;;;;;4866183;29;20739;-83
2022/07/13 01:54:13;;;;;;;2.40;2.20;;;;;;;;;;4877827;29;20706;-83
2022/07/13 01:56:40;;;;;;;2.38;2.22;;;;;;;;;;4884729;29;20240;-83
2022/07/13 01:59:25;;;;;;;2.33;2.10;;;;;;;;;;4884527;29;20231;-82
2022/07/13 02:08:45;;;;;;;2.55;2.35;;;;;;;;;;4901635;29;20238;-83
2022/07/13 02:11:34;;;;;;;2.30;2.10;;;;;;;;;;4897119;29;20732;-83
2022/07/13 02:14:00;;;;;;;2.50;2.30;;;;;;;;;;4898077;29;20224;-83
2022/07/13 02:16:26;;;;;;;2.67;2.42;;;;;;;;;;4884185;29;20224;-83
2022/07/13 02:18:54;;;;;;;2.58;2.38;;;;;;;;;;4875903;29;20756;-83
2022/07/13 02:21:19;;;;;;;3.17;2.28;;;;;;;;;;4869943;29;20234;-83
2022/07/13 02:24:05;;;;;;;2.50;2.30;;;;;;;;;;4890057;29;20304;-84
2022/07/13 02:26:32;;;;;;;3.70;2.05;;;;;;;;;;4901531;29;20230;-81
2022/07/13 02:28:59;;;;;;;2.83;2.53;;;;;;;;;;4885031;29;20259;-83
2022/07/13 02:31:26;;;;;;;3.10;2.60;;;;;;;;;;4879298;29;20229;-83
2022/07/13 02:33:52;;;;;;;2.70;2.40;;;;;;;;;;4878203;29;20225;-83
2022/07/13 02:36:36;;;;;;;2.22;2.08;;;;;;;;;;4907016;23;20261;-72
2022/07/13 02:39:20;;;;;;;2.55;2.35;;;;;;;;;;4885672;29;20236;-75
2022/07/13 02:41:46;;;;;;;2.72;2.25;;;;;;;;;;4892454;29;20236;-74
2022/07/13 02:44:15;;;;;;;2.70;2.47;;;;;;;;;;4889354;29;20240;-74
2022/07/13 02:46:43;;;;;;;3.35;2.60;;;;;;;;;;4888682;29;20753;-74
2022/07/13 02:49:09;;;;;;;3.38;2.22;;;;;;;;;;4845030;29;20232;-74
2022/07/13 02:51:40;;;;;;;3.60;2.10;;;;;;;;;;4876215;29;20220;-74
2022/07/13 02:54:08;;;;;;;2.80;2.33;;;;;;;;;;4871482;29;20229;-74
2022/07/13 02:56:33;;;;;;;3.45;2.10;;;;;;;;;;4860543;29;20236;-75
2022/07/13 02:58:59;;;;;;;2.08;1.98;;;;;;;;;;4857506;29;20221;-74
2022/07/13 03:01:25;;;;;;;2.30;2.10;;;;;;;;;;4873622;29;20262;-73
2022/07/13 03:03:53;;;;;;;2.90;2.50;;;;;;;;;;4887359;29;20230;-73
2022/07/13 03:06:21;;;;;;;2.78;2.10;;;;;;;;;;4873982;29;20229;-74
2022/07/13 03:08:49;;;;;;;2.58;2.38;;;;;;;;;;4892348;29;20224;-74
2022/07/13 03:11:15;;;;;;;2.55;2.35;;;;;;;;;;4861788;29;20216;-73
2022/07/13 03:13:41;;;;;;;2.42;2.20;;;;;;;;;;4860653;29;20770;-74
2022/07/13 03:16:06;;;;;;;2.42;2.22;;;;;;;;;;4859252;29;20225;-73
2022/07/13 03:18:33;;;;;;;2.53;2.30;;;;;;;;;;4874643;29;20232;-74
2022/07/13 03:20:59;;;;;;;2.75;2.50;;;;;;;;;;4892869;29;20224;-74
2022/07/13 03:23:46;;;;;;;2.88;2.30;;;;;;;;;;4892945;29;20235;-75
2022/07/13 03:26:12;;;;;;;2.60;2.40;;;;;;;;;;4877945;29;20229;-75
2022/07/13 03:28:39;;;;;;;4.55;2.53;;;;;;;;;;4893733;29;20231;-75
2022/07/13 03:31:07;;;;;;;4.38;2.20;;;;;;;;;;4878224;29;20231;-75
2022/07/13 03:33:35;;;;;;;3.30;2.47;;;;;;;;;;4892343;29;20687;-75
2022/07/13 03:36:21;;;;;;;2.72;2.55;;;;;;;;;;4892535;29;20236;-75
2022/07/13 03:38:47;;;;;;;3.00;2.40;;;;;;;;;;4860267;29;20263;-75
2022/07/13 03:41:15;;;;;;;2.35;2.15;;;;;;;;;;4861435;29;20715;-75
2022/07/13 03:43:41;;;;;;;2.60;2.25;;;;;;;;;;4861342;29;20235;-75
2022/07/13 03:46:11;;;;;;;2.25;2.05;;;;;;;;;;4859523;29;20274;-75
2022/07/13 03:48:38;;;;;;;2.17;1.98;;;;;;;;;;4890617;29;20236;-76
2022/07/13 03:51:04;;;;;;;2.13;1.92;;;;;;;;;;4902709;23;20244;-84
2022/07/13 03:53:30;;;;;;;2.50;2.30;;;;;;;;;;4894612;29;20300;-83
2022/07/13 03:55:57;;;;;;;1.90;1.80;;;;;;;;;;4894827;29;20273;-84
2022/07/13 03:58:44;;;;;;;2.20;2.00;;;;;;;;;;4895430;29;20247;-83
2022/07/13 04:01:28;;;;;;;2.13;2.00;;;;;;;;;;4893561;29;20255;-83
2022/07/13 04:03:58;;;;;;;2.35;1.90;;;;;;;;;;4895740;29;20324;-83
2022/07/13 04:06:47;;;;;;;1.88;1.77;;;;;;;;;;4847955;29;20224;-82
2022/07/13 04:09:13;;;;;;;1.90;1.80;;;;;;;;;;4894141;29;20235;-83
2022/07/13 04:11:41;;;;;;;2.03;1.77;;;;;;;;;;4892968;29;20296;-82
2022/07/13 04:14:09;;;;;;;1.70;1.60;;;;;;;;;;4850372;29;20221;-83
2022/07/13 04:16:35;;;;;;;2.00;1.80;;;;;;;;;;4862957;29;20302;-83
2022/07/13 04:19:02;;;;;;;2.25;2.10;;;;;;;;;;4892534;29;20225;-83
2022/07/13 04:21:47;;;;;;;1.70;1.60;;;;;;;;;;4891897;29;20248;-84
2022/07/13 04:24:13;;;;;;;1.80;1.70;;;;;;;;;;4864462;29;20239;-83
2022/07/13 04:26:39;;;;;;;2.17;1.95;;;;;;;;;;4872670;29;20236;-83
2022/07/13 04:29:07;;;;;;;1.70;1.60;;;;;;;;;;4878280;29;20236;-83
2022/07/13 04:31:33;;;;;;;1.90;1.80;;;;;;;;;;4877446;29;20245;-83
2022/07/13 04:33:58;;;;;;;1.85;1.75;;;;;;;;;;4864477;29;20284;-83
2022/07/13 04:36:27;;;;;;;2.53;1.80;;;;;;;;;;4847956;29;20228;-83
2022/07/13 04:38:53;;;;;;;1.70;1.60;;;;;;;;;;4892750;29;20248;-83
2022/07/13 04:41:19;;;;;;;2.83;1.92;;;;;;;;;;4893487;29;20229;-83
2022/07/13 04:43:45;;;;;;;1.80;1.70;;;;;;;;;;4864532;29;20284;-83
2022/07/13 04:46:14;;;;;;;2.13;1.80;;;;;;;;;;4879566;29;20228;-82
2022/07/13 04:49:11;;;;;;;1.77;1.67;;;;;;;;;;4863693;29;20186;-84
2022/07/13 04:51:37;;;;;;;1.92;1.67;;;;;;;;;;4876947;29;20229;-83
2022/07/13 04:58:15;;;;;;;2.13;2.00;;;;;;;;;;4913476;29;20211;-83
2022/07/13 05:00:41;;;;;;;1.63;1.52;;;;;;;;;;4909167;29;20748;-83
2022/07/13 05:06:54;;;;;;;2.25;1.60;;;;;;;;;;4901233;29;20261;-81
2022/07/13 05:09:20;;;;;;;4.13;1.55;;;;;;;;;;4880898;29;20225;-82
2022/07/13 05:14:31;;;;;;;1.95;1.60;;;;;;;;;;4855168;29;20250;-81
2022/07/13 05:16:57;;;;;;;1.75;1.50;;;;;;;;;;4885609;29;20240;-80
2022/07/13 05:19:24;;;;;;;1.85;1.50;;;;;;;;;;4905874;29;20221;-81
2022/07/13 05:22:09;;;;;;;2.05;1.70;;;;;;;;;;4906900;29;20259;-81
2022/07/13 05:24:36;;;;;;;1.33;1.23;;;;;;;;;;4875613;29;20237;-79
2022/07/13 05:27:05;;;;;;;1.55;1.40;;;;;;;;;;4889884;29;20221;-80
2022/07/13 05:29:33;;;;;;;2.38;1.73;;;;;;;;;;4888734;29;20664;-80
2022/07/13 05:31:58;;;;;;;1.65;1.55;;;;;;;;;;4858392;29;20237;-79
2022/07/13 05:34:27;;;;;;;1.80;1.70;;;;;;;;;;4879017;29;20235;-80
2022/07/13 05:36:57;;;;;;;2.15;1.90;;;;;;;;;;4872957;29;20220;-80
2022/07/13 05:39:25;;;;;;;2.45;1.52;;;;;;;;;;4887855;29;20712;-80
2022/07/13 05:41:52;;;;;;;1.45;1.35;;;;;;;;;;4867441;29;21122;-83
2022/07/13 05:44:18;;;;;;;3.92;1.50;;;;;;;;;;4851388;29;20233;-84
2022/07/13 05:46:44;;;;;;;2.03;1.50;;;;;;;;;;4856897;29;20213;-81
2022/07/13 05:49:14;;;;;;;3.00;1.30;;;;;;;;;;4848529;29;20224;-83
2022/07/13 05:51:39;;;;;;;2.83;1.77;;;;;;;;;;4879992;29;20283;-82
2022/07/13 05:54:07;;;;;;;3.25;1.80;;;;;;;;;;4877664;29;20217;-82
2022/07/13 05:56:35;;;;;;;1.70;1.60;;;;;;;;;;4876996;29;20910;-83
2022/07/13 05:59:01;;;;;;;2.85;1.60;;;;;;;;;;4896424;29;20228;-82
2022/07/13 06:01:47;;;;;;;1.67;1.50;;;;;;;;;;4879436;29;20252;-82
2022/07/13 06:04:12;;;;;;;1.70;1.30;;;;;;;;;;4887723;29;20232;-84
2022/07/13 06:06:38;;;;;;;2.10;1.50;;;;;;;;;;4883665;29;20231;-81
2022/07/13 06:09:04;;;;;;;1.75;1.20;;;;;;;;;;4867987;29;20718;-83
2022/07/13 06:11:29;;;;;;;5.13;1.40;;;;;;;;;;4858994;29;20235;-83
2022/07/13 06:13:55;;;;;;;1.70;1.30;;;;;;;;;;4881154;29;20221;-82
2022/07/13 06:16:39;;;;;;;3.38;1.52;;;;;;;;;;4852970;29;20216;-83
2022/07/13 06:19:07;;;;;;;1.63;1.38;;;;;;;;;;4853019;29;20221;-81
2022/07/13 06:21:33;;;;;;;4.15;1.42;;;;;;;;;;4867393;29;20229;-82
2022/07/13 06:23:58;;;;;;;2.03;1.30;;;;;;;;;;4900563;29;20244;-81
2022/07/13 06:26:24;;;;;;;1.85;1.30;;;;;;;;;;4867113;29;20243;-81
2022/07/13 06:28:50;;;;;;;1.55;1.20;;;;;;;;;;4849244;29;20793;-82
2022/07/13 06:31:40;;;;;;;1.83;1.38;;;;;;;;;;4880404;29;20234;-80
2022/07/13 06:36:50;;;;;;;1.48;1.38;;;;;;;;;;4883811;29;20225;-83
2022/07/13 06:39:15;;;;;;;1.45;1.30;;;;;;;;;;4869824;29;20285;-83
2022/07/13 06:41:41;;;;;;;2.13;1.30;;;;;;;;;;4855990;29;20232;-84
2022/07/13 06:44:06;;;;;;;1.17;1.17;;;;;;;;;;4900783;29;20245;-83
2022/07/13 06:46:32;;;;;;;2.58;1.48;;;;;;;;;;4885281;29;20237;-80
2022/07/13 06:49:19;;;;;;;1.40;1.30;;;;;;;;;;4863014;29;20261;-81
2022/07/13 06:51:48;;;;;;;2.47;1.35;;;;;;;;;;4856219;29;20613;-81
2022/07/13 06:54:16;;;;;;;3.58;1.35;;;;;;;;;;4853904;29;20221;-82
2022/07/13 06:57:00;;;;;;;1.45;1.35;;;;;;;;;;4862121;29;21006;-84
2022/07/13 06:59:28;;;;;;;1.30;1.20;;;;;;;;;;4890486;29;20315;-79
2022/07/13 07:01:56;;;;;;;2.38;1.17;;;;;;;;;;4864285;29;20233;-80
2022/07/13 07:04:21;;;;;;;1.20;1.10;;;;;;;;;;4891077;29;20860;-80
2022/07/13 07:06:47;;;;;;;2.35;1.52;;;;;;;;;;4906693;29;20231;-80
2022/07/13 07:09:12;;;;;;;1.60;1.30;;;;;;;;;;4856334;29;20240;-83
2022/07/13 07:11:38;;;;;;;2.58;1.40;;;;;;;;;;4852113;29;20236;-80
2022/07/13 07:14:03;;;;;;;1.98;1.45;;;;;;;;;;4867453;29;20239;-81
2022/07/13 07:16:31;;;;;;;1.70;1.23;;;;;;;;;;4872675;29;20319;-83
2022/07/13 07:19:01;;;;;;;1.40;1.30;;;;;;;;;;4868160;29;20299;-84
2022/07/13 07:21:27;;;;;;;1.50;1.40;;;;;;;;;;4881702;29;20665;-83
2022/07/13 07:23:52;;;;;;;1.85;1.35;;;;;;;;;;4867304;29;20243;-80
2022/07/13 07:26:18;;;;;;;1.45;1.35;;;;;;;;;;4854322;29;20251;-82
2022/07/13 07:28:46;;;;;;;1.50;1.40;;;;;;;;;;4897886;29;20250;-84
2022/07/13 07:31:11;;;;;;;1.90;1.50;;;;;;;;;;4856209;29;20716;-82
2022/07/13 07:33:37;;;;;;;0.98;0.98;;;;;;;;;;4869111;29;20260;-82
2022/07/13 07:36:04;;;;;;;1.30;1.20;;;;;;;;;;4852118;29;20216;-82
2022/07/13 07:41:13;;;;;;;1.40;1.30;;;;;;;;;;4884322;29;20260;-83
2022/07/13 07:43:39;;;;;;;1.52;1.25;;;;;;;;;;4867272;29;20301;-83
2022/07/13 07:46:05;;;;;;;1.30;1.25;;;;;;;;;;4860756;29;20224;-82
2022/07/13 07:48:49;;;;;;;1.85;1.40;;;;;;;;;;4839991;29;20221;-84
2022/07/13 07:51:17;;;;;;;1.83;1.40;;;;;;;;;;4872607;29;20240;-83
2022/07/13 07:53:43;;;;;;;1.73;1.30;;;;;;;;;;4869636;29;20228;-83
2022/07/13 07:56:09;;;;;;;1.42;1.30;;;;;;;;;;4872799;29;20221;-82
2022/07/13 07:58:36;;;;;;;1.30;1.20;;;;;;;;;;4866837;29;20694;-80
2022/07/13 08:01:02;;;;;;;1.25;1.15;;;;;;;;;;4882773;29;20253;-83
2022/07/13 08:03:28;;;;;;;1.80;1.50;;;;;;;;;;4898764;29;20236;-82
2022/07/13 08:05:57;;;;;;;1.48;1.38;;;;;;;;;;4882473;29;20259;-84
2022/07/13 08:08:22;;;;;;;1.50;1.30;;;;;;;;;;4852321;29;20792;-84
2022/07/13 08:10:48;;;;;;;1.40;1.30;;;;;;;;;;4882844;29;20240;-83
2022/07/13 08:13:13;;;;;;;3.30;1.58;;;;;;;;;;4882895;29;20236;-81
2022/07/13 08:15:41;;;;;;;2.83;1.50;;;;;;;;;;4853855;29;20241;-82
2022/07/13 08:18:22;;;;;;;2.05;1.52;;;;;;;;;;4866583;29;20225;-83
2022/07/13 08:20:47;;;;;;;2.47;1.33;;;;;;;;;;4875893;29;20228;-83
2022/07/13 08:25:57;;;;;;;2.55;1.48;;;;;;;;;;4876110;29;20225;-83
2022/07/13 08:28:23;;;;;;;2.35;1.50;;;;;;;;;;4866572;29;20688;-82
2022/07/13 08:31:24;;;;;;;3.88;1.80;;;;;;;;;;4870930;29;20243;-79
2022/07/13 08:40:25;;;;;;;1.73;1.63;;;;;;;;;;4871849;29;20685;-83
2022/07/13 08:45:35;;;;;;;2.40;1.70;;;;;;;;;;4878769;29;20288;-84
2022/07/13 08:48:10;;;;;;;2.13;1.45;;;;;;;;;;4855504;29;20324;-83
2022/07/13 08:50:35;;;;;;;2.05;1.50;;;;;;;;;;4862099;29;20229;-81
2022/07/13 08:53:05;;;;;;;1.50;1.40;;;;;;;;;;4872271;29;20284;-80
2022/07/13 08:55:50;;;;;;;3.90;1.73;;;;;;;;;;4887435;29;20292;-82
2022/07/13 08:58:16;;;;;;;3.95;1.90;;;;;;;;;;4882655;29;20229;-85
2022/07/13 09:00:44;;;;;;;2.47;1.67;;;;;;;;;;4836626;29;20308;-82
2022/07/13 09:03:09;;;;;;;2.22;1.50;;;;;;;;;;4853696;29;20252;-80
2022/07/13 09:05:57;;;;;;;1.98;1.60;;;;;;;;;;4864180;29;20308;-82
2022/07/13 09:08:22;;;;;;;3.13;1.63;;;;;;;;;;4896603;29;20224;-81
2022/07/13 09:10:59;;;;;;;2.85;1.55;;;;;;;;;;4852470;29;20233;-84
2022/07/13 09:13:44;;;;;;;3.58;1.38;;;;;;;;;;4868504;29;20773;-79
2022/07/13 09:16:19;;;;;;;1.95;1.48;;;;;;;;;;4867444;29;20233;-82
2022/07/13 09:18:55;;;;;;;2.22;1.30;;;;;;;;;;4881343;29;20236;-83
2022/07/13 09:21:20;;;;;;;2.92;1.90;;;;;;;;;;4852681;29;20246;-83
2022/07/13 09:23:57;;;;;;;2.17;1.70;;;;;;;;;;4866722;29;20323;-85
2022/07/13 09:26:23;;;;;;;1.98;1.70;;;;;;;;;;4835013;29;20240;-85
2022/07/13 09:28:51;;;;;;;2.10;1.60;;;;;;;;;;4855866;29;20280;-83
2022/07/13 09:31:50;;;;;;;1.70;1.52;;;;;;;;;;4881616;29;20280;-83
2022/07/13 09:34:18;;;;;;;4.35;1.80;;;;;;;;;;4896347;29;20239;-85
2022/07/13 09:36:44;;;;;;;2.35;1.58;;;;;;;;;;4853842;29;20240;-83
2022/07/13 09:39:10;;;;;;;4.32;1.60;;;;;;;;;;4856315;29;20327;-84
2022/07/13 09:41:35;;;;;;;2.28;1.60;;;;;;;;;;4835911;29;20652;-83
2022/07/13 09:46:56;;;;;;;2.20;1.70;;;;;;;;;;4886455;29;20217;-81
2022/07/13 09:49:39;;;;;;;3.08;1.70;;;;;;;;;;4898724;29;20233;-82
2022/07/13 09:52:29;;;;;;;4.95;1.77;;;;;;;;;;4852587;29;20220;-81
2022/07/13 09:54:55;;;;;;;6.25;1.80;;;;;;;;;;4882019;29;20225;-80
2022/07/13 09:57:22;;;;;;;2.40;1.90;;;;;;;;;;4849891;29;20288;-79
2022/07/13 09:59:49;;;;;;;3.92;1.70;;;;;;;;;;4873732;29;20347;-82
2022/07/13 10:02:15;;;;;;;2.28;1.58;;;;;;;;;;4849552;29;20261;-83
2022/07/13 10:04:40;;;;;;;3.10;1.50;;;;;;;;;;4884052;29;20237;-80
2022/07/13 10:07:07;;;;;;;2.17;1.77;;;;;;;;;;4869925;29;20236;-82
2022/07/13 10:09:51;;;;;;;3.55;1.52;;;;;;;;;;4880768;29;20259;-83
2022/07/13 10:12:17;;;;;;;1.70;1.60;;;;;;;;;;4866044;29;20236;-82
2022/07/13 10:14:42;;;;;;;2.03;1.83;;;;;;;;;;4902248;29;20233;-84
2022/07/13 10:17:11;;;;;;;2.38;1.52;;;;;;;;;;4875068;29;20223;-84
2022/07/13 10:19:43;;;;;;;2.80;1.75;;;;;;;;;;4870959;29;20221;-82
2022/07/13 10:22:12;;;;;;;4.88;1.95;;;;;;;;;;4854321;29;20233;-82
2022/07/13 10:24:37;;;;;;;3.03;1.70;;;;;;;;;;4887302;29;20726;-81
2022/07/13 10:27:18;;;;;;;1.50;1.40;;;;;;;;;;4867412;29;20232;-81
2022/07/13 10:32:15;;;;;;;3.42;1.80;;;;;;;;;;4861787;29;20236;-75
2022/07/13 10:34:52;;;;;;;4.05;1.40;;;;;;;;;;4833493;29;20705;-75
2022/07/13 10:37:19;;;;;;;3.28;1.83;;;;;;;;;;4803893;29;20218;-74
2022/07/13 10:40:11;;;;;;;1.88;1.70;;;;;;;;;;4820031;29;20272;-74
2022/07/13 10:43:03;;;;;;;2.08;1.63;;;;;;;;;;4856648;29;20496;-75
2022/07/13 10:45:42;;;;;;;2.97;1.58;;;;;;;;;;4854366;29;20245;-74
2022/07/13 10:48:16;;;;;;;1.80;1.70;;;;;;;;;;4856647;29;20317;-74
2022/07/13 10:50:51;;;;;;;2.15;1.77;;;;;;;;;;4857254;29;20240;-76
2022/07/13 10:53:17;;;;;;;2.03;1.75;;;;;;;;;;4839868;29;20772;-74
2022/07/13 10:55:47;;;;;;;3.28;1.73;;;;;;;;;;4826096;29;20222;-74
2022/07/13 10:58:29;;;;;;;2.88;1.70;;;;;;;;;;4855901;29;20297;-74
2022/07/13 11:01:00;;;;;;;1.80;1.70;;;;;;;;;;4853990;29;20233;-75
2022/07/13 11:03:38;;;;;;;2.05;1.80;;;;;;;;;;4808456;29;20225;-74
2022/07/13 11:06:05;;;;;;;1.60;1.50;;;;;;;;;;4830292;29;20222;-73
2022/07/13 11:08:31;;;;;;;3.80;2.10;;;;;;;;;;4842040;29;20692;-74
2022/07/13 11:11:12;;;;;;;2.85;1.98;;;;;;;;;;4826478;29;20250;-75
2022/07/13 11:13:38;;;;;;;2.90;1.70;;;;;;;;;;4838291;29;20240;-74
2022/07/13 11:16:07;;;;;;;2.65;1.77;;;;;;;;;;4824571;29;20281;-75
2022/07/13 11:18:44;;;;;;;3.28;1.60;;;;;;;;;;4823319;29;20233;-75
2022/07/13 11:21:18;;;;;;;2.90;1.63;;;;;;;;;;4840529;29;20563;-75
2022/07/13 11:26:51;;;;;;;3.58;1.90;;;;;;;;;;4854505;29;20241;-75
2022/07/13 11:29:38;;;;;;;4.95;1.77;;;;;;;;;;4857079;29;20221;-74
2022/07/13 11:32:06;;;;;;;3.25;2.20;;;;;;;;;;4854644;29;20226;-73
2022/07/13 11:34:36;;;;;;;1.80;1.70;;;;;;;;;;4821774;29;20641;-73
2022/07/13 11:37:09;;;;;;;3.05;1.70;;;;;;;;;;4824145;29;20623;-75
2022/07/13 11:39:35;;;;;;;3.38;1.85;;;;;;;;;;4825711;29;20257;-73
2022/07/13 11:42:05;;;;;;;2.10;1.90;;;;;;;;;;4839812;29;20772;-73
2022/07/13 11:44:34;;;;;;;2.10;1.90;;;;;;;;;;4829016;29;20328;-74
2022/07/13 11:47:07;;;;;;;2.10;1.90;;;;;;;;;;4815517;29;20245;-76
2022/07/13 11:49:50;;;;;;;1.92;1.80;;;;;;;;;;4790951;29;20232;-76
2022/07/13 11:52:22;;;;;;;3.75;1.90;;;;;;;;;;4839215;29;20455;-75
2022/07/13 11:54:57;;;;;;;2.35;1.90;;;;;;;;;;4855899;29;20234;-77
2022/07/13 11:57:25;;;;;;;2.47;1.88;;;;;;;;;;4800645;29;20264;-75
2022/07/13 11:59:51;;;;;;;2.65;1.83;;;;;;;;;;4837484;29;20358;-75
2022/07/13 12:02:19;;;;;;;1.95;1.77;;;;;;;;;;4833858;29;20607;-75
2022/07/13 12:04:45;;;;;;;2.63;2.08;;;;;;;;;;4839132;29;20246;-77
2022/07/13 12:07:28;;;;;;;2.20;2.00;;;;;;;;;;4823310;29;20230;-75
2022/07/13 12:09:55;;;;;;;2.88;1.80;;;;;;;;;;4799517;29;20238;-75
2022/07/13 12:12:26;;;;;;;4.88;2.53;;;;;;;;;;4839949;29;20222;-74
2022/07/13 12:14:54;;;;;;;2.13;1.77;;;;;;;;;;4824459;29;20329;-74
2022/07/13 12:17:23;;;;;;;2.65;2.00;;;;;;;;;;4839363;29;20237;-75
2022/07/13 12:20:01;;;;;;;3.65;1.75;;;;;;;;;;4824814;29;20226;-75
2022/07/13 12:22:26;;;;;;;3.30;1.95;;;;;;;;;;4825533;29;20717;-75
2022/07/13 12:24:51;;;;;;;2.28;1.85;;;;;;;;;;4854340;29;20242;-75
2022/07/13 12:27:26;;;;;;;3.10;1.90;;;;;;;;;;4836087;29;20230;-75
2022/07/13 12:30:07;;;;;;;6.03;2.00;;;;;;;;;;4854207;29;20783;-75
2022/07/13 12:32:53;;;;;;;4.95;2.15;;;;;;;;;;4852185;29;20245;-75
2022/07/13 12:35:19;;;;;;;2.25;1.90;;;;;;;;;;4803357;29;20839;-74
2022/07/13 12:37:52;;;;;;;2.17;2.00;;;;;;;;;;4839097;29;20290;-75
2022/07/13 12:40:38;;;;;;;3.85;1.90;;;;;;;;;;4810252;29;20234;-74
2022/07/13 12:43:03;;;;;;;2.70;1.95;;;;;;;;;;4838332;29;20258;-73
2022/07/13 12:45:31;;;;;;;2.03;1.83;;;;;;;;;;4863557;29;20246;-79
2022/07/13 12:47:59;;;;;;;4.88;2.03;;;;;;;;;;4829048;29;20356;-74
2022/07/13 12:50:31;;;;;;;3.22;1.85;;;;;;;;;;4815081;29;20236;-76
2022/07/13 12:52:58;;;;;;;2.65;2.00;;;;;;;;;;4813284;29;20230;-76
2022/07/13 12:55:24;;;;;;;2.88;1.80;;;;;;;;;;4837659;29;20230;-76
2022/07/13 12:57:52;;;;;;;2.40;2.20;;;;;;;;;;4826960;29;20683;-75
2022/07/13 13:00:25;;;;;;;2.42;2.22;;;;;;;;;;4843112;29;20286;-77
2022/07/13 13:02:53;;;;;;;3.08;2.15;;;;;;;;;;4814578;29;20744;-75
2022/07/13 13:05:20;;;;;;;3.92;2.28;;;;;;;;;;4823930;29;20690;-74
2022/07/13 13:07:46;;;;;;;4.65;2.20;;;;;;;;;;4824963;29;20273;-74
2022/07/13 13:10:12;;;;;;;2.85;2.40;;;;;;;;;;4837442;29;20232;-74
2022/07/13 13:12:37;;;;;;;2.63;1.90;;;;;;;;;;4823866;29;20226;-75
2022/07/13 13:15:06;;;;;;;3.03;2.30;;;;;;;;;;4824077;29;20266;-73
2022/07/13 13:17:32;;;;;;;3.72;1.92;;;;;;;;;;4839389;29;20222;-73
2022/07/13 13:19:59;;;;;;;3.65;2.67;;;;;;;;;;4838503;29;20599;-73
2022/07/13 13:22:25;;;;;;;2.42;2.22;;;;;;;;;;4851790;29;20218;-75
2022/07/13 13:24:51;;;;;;;2.92;2.20;;;;;;;;;;4820024;29;20918;-76
2022/07/13 13:27:18;;;;;;;2.50;2.30;;;;;;;;;;4853474;29;20286;-75
2022/07/13 13:32:28;;;;;;;3.25;2.20;;;;;;;;;;4852794;29;20640;-75
2022/07/13 13:34:58;;;;;;;3.13;2.15;;;;;;;;;;4852612;29;20320;-74
2022/07/13 13:37:24;;;;;;;3.38;2.22;;;;;;;;;;4836923;29;20278;-73
2022/07/13 13:39:52;;;;;;;2.10;2.00;;;;;;;;;;4837833;29;20242;-75
2022/07/13 13:42:20;;;;;;;2.17;2.05;;;;;;;;;;4837732;29;20225;-75
2022/07/13 13:44:46;;;;;;;2.85;2.38;;;;;;;;;;4824138;29;20249;-73
2022/07/13 13:47:11;;;;;;;6.22;3.00;;;;;;;;;;4839624;29;20260;-76
2022/07/13 13:49:42;;;;;;;3.40;2.40;;;;;;;;;;4839585;29;20273;-74
2022/07/13 13:52:08;;;;;;;2.80;2.10;;;;;;;;;;4826337;29;20225;-75
2022/07/13 13:54:33;;;;;;;11.65;3.15;;;;;;;;;;4838249;29;20230;-75
2022/07/13 13:56:59;;;;;;;2.95;2.20;;;;;;;;;;4853010;29;20237;-73
2022/07/13 13:59:24;;;;;;;3.30;2.38;;;;;;;;;;4844586;29;20863;-73
2022/07/13 14:01:50;;;;;;;3.28;2.30;;;;;;;;;;4838084;29;20230;-74
2022/07/13 14:04:16;;;;;;;2.97;2.30;;;;;;;;;;4805605;29;20230;-74
2022/07/13 14:06:45;;;;;;;5.90;2.40;;;;;;;;;;4837476;29;20226;-74
2022/07/13 14:09:13;;;;;;;4.63;2.30;;;;;;;;;;4837828;29;20627;-75
2022/07/13 14:11:41;;;;;;;10.13;2.80;;;;;;;;;;4827958;29;20229;-75
2022/07/13 14:14:08;;;;;;;2.28;2.10;;;;;;;;;;4843861;29;20224;-74
2022/07/13 14:16:34;;;;;;;3.25;2.30;;;;;;;;;;4830460;29;20225;-76
2022/07/13 14:19:00;;;;;;;3.45;2.33;;;;;;;;;;4807814;29;20700;-75
2022/07/13 14:21:25;;;;;;;2.45;2.25;;;;;;;;;;4841965;29;20233;-75
2022/07/13 14:23:51;;;;;;;3.28;2.20;;;;;;;;;;4820653;29;20238;-75
2022/07/13 14:26:19;;;;;;;2.90;2.58;;;;;;;;;;4823853;29;20229;-72
2022/07/13 14:28:44;;;;;;;2.53;2.33;;;;;;;;;;4855122;29;20681;-75
2022/07/13 14:31:12;;;;;;;2.40;2.20;;;;;;;;;;4853571;29;20214;-73
2022/07/13 14:33:39;;;;;;;2.45;2.20;;;;;;;;;;4836928;29;20313;-75
2022/07/13 14:36:05;;;;;;;2.63;2.03;;;;;;;;;;4811887;29;20249;-74
2022/07/13 14:38:33;;;;;;;2.28;2.08;;;;;;;;;;4836393;29;20862;-78
2022/07/13 14:41:04;;;;;;;3.60;2.25;;;;;;;;;;4852609;29;20233;-74
2022/07/13 14:43:31;;;;;;;2.10;2.00;;;;;;;;;;4837838;29;20245;-74
2022/07/13 14:45:56;;;;;;;2.60;2.40;;;;;;;;;;4838622;29;20250;-75
2022/07/13 14:48:22;;;;;;;3.25;2.47;;;;;;;;;;4836602;29;20313;-72
2022/07/13 14:50:48;;;;;;;3.58;2.30;;;;;;;;;;4852119;29;20311;-74
2022/07/13 14:53:13;;;;;;;2.58;2.38;;;;;;;;;;4835742;29;20637;-74
2022/07/13 14:55:41;;;;;;;3.47;2.25;;;;;;;;;;4816256;29;20300;-73
2022/07/13 14:58:09;;;;;;;4.90;2.60;;;;;;;;;;4839320;29;20226;-75
2022/07/13 15:00:34;;;;;;;2.55;2.03;;;;;;;;;;4841399;29;20277;-75
2022/07/13 15:03:04;;;;;;;2.50;2.15;;;;;;;;;;4857268;29;20222;-74
2022/07/13 15:05:31;;;;;;;3.05;2.20;;;;;;;;;;4827476;29;20235;-75
2022/07/13 15:07:59;;;;;;;2.17;1.98;;;;;;;;;;4840501;29;20717;-73
2022/07/13 15:10:29;;;;;;;2.30;2.10;;;;;;;;;;4800776;29;20682;-73
2022/07/13 15:12:56;;;;;;;2.42;2.22;;;;;;;;;;4841573;29;20242;-74
2022/07/13 15:15:24;;;;;;;2.65;2.38;;;;;;;;;;4860271;29;20603;-75
2022/07/13 15:17:54;;;;;;;3.88;2.38;;;;;;;;;;4844606;29;20238;-74
2022/07/13 15:20:19;;;;;;;2.40;2.20;;;;;;;;;;4822025;29;20229;-75
2022/07/13 15:22:47;;;;;;;2.67;2.30;;;;;;;;;;4824675;29;20958;-74
2022/07/13 15:25:15;;;;;;;2.30;2.10;;;;;;;;;;4824149;29;20650;-76
2022/07/13 15:27:41;;;;;;;3.20;2.28;;;;;;;;;;4842128;29;20313;-74
2022/07/13 15:30:07;;;;;;;2.92;2.28;;;;;;;;;;4843136;29;20734;-74
2022/07/13 15:32:35;;;;;;;3.40;2.13;;;;;;;;;;4840757;29;20724;-74
2022/07/13 15:35:00;;;;;;;4.18;2.20;;;;;;;;;;4856060;29;20226;-74
2022/07/13 15:37:30;;;;;;;2.38;2.03;;;;;;;;;;4824576;29;20228;-74
2022/07/13 15:39:58;;;;;;;2.40;1.90;;;;;;;;;;4813820;29;20730;-75
2022/07/13 15:42:23;;;;;;;2.17;1.90;;;;;;;;;;4854284;29;20226;-73
2022/07/13 15:44:49;;;;;;;3.00;2.03;;;;;;;;;;4855670;29;20242;-73
2022/07/13 15:47:19;;;;;;;2.72;1.83;;;;;;;;;;4857785;29;20324;-74
2022/07/13 15:49:47;;;;;;;2.30;1.75;;;;;;;;;;4841015;29;20226;-72
2022/07/13 15:52:12;;;;;;;2.72;1.50;;;;;;;;;;4857099;29;20717;-74
2022/07/13 15:54:38;;;;;;;2.05;1.65;;;;;;;;;;4827590;29;20237;-79